createdAt,value
2022-09-20T00:00:00.082Z,6.3
2022-09-20T00:05:00.169Z,6.2
2022-09-20T00:10:00.373Z,6.2
2022-09-20T00:15:00.127Z,6.3
2022-09-20T00:20:00.077Z,6.2
2022-09-20T00:25:00.333Z,6.2
2022-09-20T00:30:00.177Z,6.1
2022-09-20T00:35:00.202Z,6.1
2022-09-20T00:40:00.074Z,6.1
2022-09-20T00:45:00.069Z,6.1
2022-09-20T00:50:00.378Z,6.1
2022-09-20T00:55:00.128Z,6.1
2022-09-20T01:00:00.052Z,6
2022-09-20T01:05:00.347Z,5.9
2022-09-20T01:10:00.139Z,6
2022-09-20T01:15:00.385Z,6
2022-09-20T01:20:00.136Z,5.9
2022-09-20T01:25:00.059Z,6.1
2022-09-20T01:30:00.420Z,6.1
2022-09-20T01:35:00.140Z,6
2022-09-20T01:40:00.184Z,6
2022-09-20T01:45:00.083Z,6
2022-09-20T01:50:00.382Z,5.9
2022-09-20T01:55:00.155Z,5.9
2022-09-20T02:00:00.079Z,5.8
2022-09-20T02:05:00.353Z,5.8
2022-09-20T02:10:00.117Z,5.8
2022-09-20T02:15:00.087Z,5.8
2022-09-20T02:20:00.329Z,5.8
2022-09-20T02:25:00.145Z,5.8
2022-09-20T02:30:00.184Z,5.7
2022-09-20T02:35:00.109Z,5.8
2022-09-20T02:40:00.414Z,5.8
2022-09-20T02:45:00.140Z,5.7
2022-09-20T02:50:00.073Z,5.7
2022-09-20T02:55:00.361Z,5.7
2022-09-20T03:00:00.133Z,5.6
2022-09-20T03:05:00.341Z,5.6
2022-09-20T03:10:00.374Z,5.6
2022-09-20T03:15:00.125Z,5.6
2022-09-20T03:20:00.077Z,5.6
2022-09-20T03:25:00.064Z,5.6
2022-09-20T03:30:00.093Z,5.6
2022-09-20T03:35:00.338Z,5.6
2022-09-20T03:40:00.221Z,5.5
2022-09-20T03:45:00.088Z,5.5
2022-09-20T03:50:00.386Z,5.6
2022-09-20T03:55:00.149Z,5.5
2022-09-20T04:00:00.061Z,5.5
2022-09-20T04:05:00.344Z,5.5
2022-09-20T04:10:00.132Z,5.5
2022-09-20T04:15:00.366Z,5.4
2022-09-20T04:20:00.137Z,5.5
2022-09-20T04:25:00.059Z,5.5
2022-09-20T04:30:00.103Z,5.5
2022-09-20T04:35:00.065Z,5.5
2022-09-20T04:40:00.392Z,5.4
2022-09-20T04:45:00.128Z,5.4
2022-09-20T04:50:00.069Z,5.4
2022-09-20T04:55:00.334Z,5.4
2022-09-20T05:00:00.168Z,5.4
2022-09-20T05:05:00.135Z,5.4
2022-09-20T05:10:00.373Z,5.4
2022-09-20T05:15:00.131Z,5.4
2022-09-20T05:20:00.061Z,5.3
2022-09-20T05:25:00.073Z,5.4
2022-09-20T05:30:03.177Z,5.4
2022-09-20T05:35:00.112Z,5.4
2022-09-20T05:40:00.110Z,5.4
2022-09-20T05:45:00.072Z,5.4
2022-09-20T05:50:00.389Z,5.4
2022-09-20T05:55:00.112Z,5.4
2022-09-20T06:00:00.085Z,5.4
2022-09-20T06:05:00.381Z,5.5
2022-09-20T06:10:00.149Z,5.6
2022-09-20T06:15:00.382Z,5.6
2022-09-20T06:20:00.346Z,5.7
2022-09-20T06:25:00.137Z,5.7
2022-09-20T06:30:00.083Z,5.8
2022-09-20T06:35:00.150Z,5.9
2022-09-20T06:40:00.426Z,6
2022-09-20T06:45:00.144Z,6.1
2022-09-20T06:50:00.384Z,6.2
2022-09-20T06:55:00.153Z,6.2
2022-09-20T07:00:00.100Z,6.5
2022-09-20T07:05:00.380Z,6.6
2022-09-20T07:10:00.122Z,6.8
2022-09-20T07:15:00.371Z,7.1
2022-09-20T07:20:00.181Z,7.7
2022-09-20T07:25:00.074Z,7.9
2022-09-20T07:30:00.358Z,8.3
2022-09-20T07:35:00.126Z,8.8
2022-09-20T07:40:00.130Z,8.9
2022-09-20T07:45:00.344Z,8.6
2022-09-20T07:50:00.197Z,8.5
2022-09-20T07:55:00.064Z,8.3
2022-09-20T08:00:00.382Z,8.2
2022-09-20T08:05:00.118Z,8.4
2022-09-20T08:10:00.065Z,8.4
2022-09-20T08:15:00.354Z,8.3
2022-09-20T08:20:00.346Z,8.3
2022-09-20T08:25:00.145Z,8.3
2022-09-20T08:30:00.067Z,8.2
2022-09-20T08:35:00.563Z,8.5
2022-09-20T08:40:00.453Z,8.4
2022-09-20T08:45:00.399Z,8.3
2022-09-20T08:50:00.610Z,7.9
2022-09-20T08:55:00.185Z,8.1
2022-09-20T09:00:00.057Z,7.8
2022-09-20T09:05:00.375Z,7.7
2022-09-20T09:10:00.132Z,7.7
2022-09-20T09:15:00.075Z,7.4
2022-09-20T09:20:00.068Z,7.3
2022-09-20T09:25:00.074Z,7.3
2022-09-20T09:30:00.077Z,7.2
2022-09-20T09:35:00.067Z,7
2022-09-20T09:40:00.416Z,7.4
2022-09-20T09:45:00.130Z,7.6
2022-09-20T09:50:02.830Z,7.8
2022-09-20T09:55:03.306Z,7.6
2022-09-20T10:00:00.970Z,7.3
2022-09-20T10:05:00.067Z,7.4
2022-09-20T10:10:00.077Z,7.3
2022-09-20T10:15:00.082Z,7.4
2022-09-20T10:20:00.327Z,7.3
2022-09-20T10:25:00.486Z,7.2
2022-09-20T10:30:00.359Z,7.6
2022-09-20T10:35:00.146Z,7.4
2022-09-20T10:40:00.240Z,7.4
2022-09-20T10:45:00.343Z,7.3
2022-09-20T10:50:00.515Z,7.3
2022-09-20T10:55:00.385Z,7.4
2022-09-20T11:00:00.160Z,7.3
2022-09-20T11:05:00.064Z,7.1
2022-09-20T11:10:00.341Z,7.3
2022-09-20T11:15:00.137Z,7.3
2022-09-20T11:20:03.501Z,7.4
2022-09-20T11:25:00.318Z,7
2022-09-20T11:30:00.357Z,6.9
2022-09-20T11:35:00.142Z,7
2022-09-20T11:40:00.212Z,7
2022-09-20T11:45:00.377Z,7
2022-09-20T11:50:00.347Z,7
2022-09-20T11:55:00.140Z,7.2
2022-09-20T12:00:00.344Z,7.2
2022-09-20T12:05:00.154Z,6.8
2022-09-20T12:10:00.139Z,6.9
2022-09-20T12:15:00.098Z,6.7
2022-09-20T12:20:00.356Z,7.2
2022-09-20T12:25:00.120Z,6.8
2022-09-20T12:30:00.091Z,6.7
2022-09-20T12:35:00.367Z,6.8
2022-09-20T12:40:00.466Z,6.6
2022-09-20T12:45:00.123Z,6.6
2022-09-20T12:50:00.084Z,6.7
2022-09-20T12:55:03.901Z,6.7
2022-09-20T13:05:00.076Z,6.9
2022-09-20T13:10:00.082Z,7.1
2022-09-20T13:15:00.068Z,7
2022-09-20T13:20:00.364Z,6.7
2022-09-20T13:25:00.368Z,6.6
2022-09-20T13:30:00.369Z,6.5
2022-09-20T13:35:00.139Z,6.8
2022-09-20T13:40:00.242Z,6.7
2022-09-20T13:45:00.083Z,6.6
2022-09-20T13:50:00.380Z,6.7
2022-09-20T13:55:00.401Z,6.8
2022-09-20T14:00:00.121Z,6.8
2022-09-20T14:05:00.069Z,6.9
2022-09-20T14:10:00.403Z,6.8
2022-09-20T14:15:00.146Z,7
2022-09-20T14:20:00.147Z,6.8
2022-09-20T14:25:00.098Z,6.6
2022-09-20T14:30:00.377Z,6.7
2022-09-20T14:35:00.123Z,6.6
2022-09-20T14:40:00.175Z,6.7
2022-09-20T14:45:00.138Z,6.5
2022-09-20T14:50:00.223Z,6.7
2022-09-20T14:55:00.071Z,6.9
2022-09-20T15:00:00.444Z,6.7
2022-09-20T15:05:00.121Z,6.8
2022-09-20T15:10:00.164Z,6.7
2022-09-20T15:15:00.083Z,6.7
2022-09-20T15:20:00.060Z,6.7
2022-09-20T15:25:00.081Z,6.9
2022-09-20T15:30:00.102Z,6.9
2022-09-20T15:35:00.068Z,6.8
2022-09-20T15:40:00.100Z,6.8
2022-09-20T15:45:00.372Z,6.9
2022-09-20T15:50:00.121Z,6.7
2022-09-20T15:55:00.359Z,6.9
2022-09-20T16:00:00.348Z,6.7
2022-09-20T16:05:00.345Z,6.7
2022-09-20T16:10:00.408Z,6.7
2022-09-20T16:15:00.129Z,6.8
2022-09-20T16:20:00.083Z,6.8
2022-09-20T16:25:00.349Z,6.8
2022-09-20T16:30:00.184Z,6.9
2022-09-20T16:35:00.077Z,6.9
2022-09-20T16:40:00.124Z,6.8
2022-09-20T16:45:00.085Z,6.8
2022-09-20T16:50:00.383Z,6.7
2022-09-20T16:55:00.338Z,6.7
2022-09-20T17:00:00.332Z,6.8
2022-09-20T17:05:00.440Z,6.8
2022-09-20T17:10:00.137Z,6.9
2022-09-20T17:15:00.054Z,6.9
2022-09-20T17:20:00.344Z,6.9
2022-09-20T17:25:00.133Z,7
2022-09-20T17:30:00.084Z,6.9
2022-09-20T17:35:00.319Z,6.8
2022-09-20T17:40:00.227Z,6.8
2022-09-20T17:45:00.082Z,6.8
2022-09-20T17:50:00.359Z,6.9
2022-09-20T17:55:00.115Z,7.1
2022-09-20T18:00:00.073Z,7
2022-09-20T18:05:00.333Z,6.9
2022-09-20T18:10:00.129Z,6.9
2022-09-20T18:15:00.066Z,7
2022-09-20T18:20:00.401Z,7
2022-09-20T18:25:00.135Z,7
2022-09-20T18:30:00.089Z,6.9
2022-09-20T18:35:00.364Z,6.8
2022-09-20T18:40:00.232Z,6.9
2022-09-20T18:45:00.064Z,6.9
2022-09-20T18:50:00.398Z,6.9
2022-09-20T18:55:00.341Z,7.1
2022-09-20T19:00:03.578Z,7.1
2022-09-20T19:05:00.145Z,7.1
2022-09-20T19:10:00.099Z,7.1
2022-09-20T19:15:00.375Z,7.2
2022-09-20T19:20:00.126Z,7.1
2022-09-20T19:25:00.073Z,7.4
2022-09-20T19:30:00.347Z,7.4
2022-09-20T19:35:00.115Z,7.4
2022-09-20T19:40:00.213Z,7.5
2022-09-20T19:45:00.090Z,7.4
2022-09-20T19:50:00.079Z,7.5
2022-09-20T19:55:00.071Z,7.5
2022-09-20T20:00:00.081Z,7.6
2022-09-20T20:05:00.079Z,7.6
2022-09-20T20:10:00.069Z,7.6
2022-09-20T20:15:00.073Z,7.6
2022-09-20T20:20:00.089Z,7.6
2022-09-20T20:25:00.423Z,7.6
2022-09-20T20:30:00.390Z,7.5
2022-09-20T20:35:00.123Z,7.4
2022-09-20T20:40:00.112Z,7.4
2022-09-20T20:45:00.095Z,7.5
2022-09-20T20:50:00.270Z,7.4
2022-09-20T20:55:00.153Z,7.4
2022-09-20T21:00:00.120Z,7.5
2022-09-20T21:05:00.125Z,7.4
2022-09-20T21:10:00.129Z,7.4
2022-09-20T21:15:00.069Z,7.4
2022-09-20T21:20:00.086Z,7.4
2022-09-20T21:25:00.348Z,7.3
2022-09-20T21:30:00.167Z,7.4
2022-09-20T21:35:00.089Z,7.4
2022-09-20T21:40:00.504Z,7.4
2022-09-20T21:45:00.123Z,7.4
2022-09-20T21:50:00.076Z,7.4
2022-09-20T21:55:00.394Z,7.4
2022-09-20T22:00:00.123Z,7.4
2022-09-20T22:05:00.137Z,7.4
2022-09-20T22:10:00.328Z,7.4
2022-09-20T22:15:00.134Z,7.4
2022-09-20T22:20:00.064Z,7.2
2022-09-20T22:25:00.069Z,7.2
2022-09-20T22:30:02.721Z,7
2022-09-20T22:35:00.142Z,7.1
2022-09-20T22:40:00.174Z,7
2022-09-20T22:45:00.374Z,7
2022-09-20T22:50:00.140Z,7
2022-09-20T22:55:00.072Z,7
2022-09-20T23:00:00.334Z,7
2022-09-20T23:05:00.127Z,7
2022-09-20T23:10:00.077Z,7
2022-09-20T23:15:00.078Z,6.9
2022-09-20T23:20:00.080Z,6.9
2022-09-20T23:25:00.366Z,6.9
2022-09-20T23:30:00.174Z,6.8
2022-09-20T23:35:00.356Z,6.7
2022-09-20T23:40:00.226Z,6.7
2022-09-20T23:45:00.072Z,6.8
2022-09-20T23:50:00.070Z,6.7
2022-09-20T23:55:00.080Z,6.7
